Time;durP1;ratioP1;P1;durP2;ratioP2;P2;SDS_P1;SDS_P2;PMS_P1;PMS_P2;Temp;Humidity;BMP_temperature;BMP_pressure;BME280_temperature;BME280_humidity;BME280_pressure;Samples;Min_cycle;Max_cycle;Signal;HPM_P1;HPM_P2
2021/12/30 00:00:47;;;;;;;2.20;2.10;;;;;;;-143.84;100.00;43954.34;5030279;28;20471;-73
2021/12/30 00:03:16;;;;;;;3.03;2.83;;;;;;;-143.84;100.00;43969.59;5030092;28;20448;-73
2021/12/30 00:05:43;;;;;;;2.73;2.50;;;;;;;-143.84;100.00;43982.91;5031387;28;20442;-73
2021/12/30 00:08:12;;;;;;;2.53;2.43;;;;;;;-143.84;100.00;43990.53;5030156;28;20446;-73
2021/12/30 00:10:41;;;;;;;2.33;2.23;;;;;;;-143.84;100.00;43988.63;5030536;28;20585;-73
2021/12/30 00:13:09;;;;;;;2.63;2.27;;;;;;;-143.84;100.00;43994.31;5031318;28;20878;-73
2021/12/30 00:15:37;;;;;;;2.50;2.40;;;;;;;-143.84;100.00;44011.47;5030800;28;20485;-73
2021/12/30 00:18:05;;;;;;;2.80;2.60;;;;;;;-143.84;100.00;43994.31;5031098;28;20438;-73
2021/12/30 00:20:34;;;;;;;2.60;2.40;;;;;;;-143.84;100.00;44020.97;5031200;28;20470;-73
2021/12/30 00:23:04;;;;;;;2.63;2.43;;;;;;;-143.84;100.00;44013.38;5030587;28;20446;-73
2021/12/30 00:25:38;;;;;;;2.80;2.60;;;;;;;-143.84;100.00;44030.50;5029702;28;20447;-75
2021/12/30 00:28:06;;;;;;;2.37;2.20;;;;;;;-143.84;100.00;44036.22;5029446;28;20549;-75
2021/12/30 00:30:34;;;;;;;2.83;2.63;;;;;;;-143.84;100.00;44040.00;5029127;28;20434;-75
2021/12/30 00:33:01;;;;;;;2.40;2.30;;;;;;;-143.84;100.00;44055.25;5029213;28;20453;-75
2021/12/30 00:35:29;;;;;;;2.50;2.40;;;;;;;-143.84;100.00;44060.94;5029164;28;20434;-75
2021/12/30 00:37:58;;;;;;;2.37;2.20;;;;;;;-143.84;100.00;44043.81;5030933;28;20518;-77
2021/12/30 00:40:26;;;;;;;2.03;1.93;;;;;;;-143.84;100.00;44045.72;5031129;28;20482;-77
2021/12/30 00:42:53;;;;;;;2.10;2.00;;;;;;;-143.84;100.00;44038.09;5031674;28;20772;-77
2021/12/30 00:45:20;;;;;;;2.73;2.53;;;;;;;-143.84;100.00;44028.59;5031444;28;20427;-77
2021/12/30 00:47:47;;;;;;;2.00;1.90;;;;;;;-143.84;100.00;44034.31;5031410;28;20993;-78
2021/12/30 00:50:15;;;;;;;2.47;2.30;;;;;;;-143.84;100.00;44032.41;5031020;28;20443;-77
2021/12/30 00:52:42;;;;;;;1.90;1.80;;;;;;;-143.84;100.00;44041.91;5031572;28;20441;-78
2021/12/30 00:55:11;;;;;;;2.30;2.20;;;;;;;-143.84;100.00;44032.41;5031126;28;20443;-78
2021/12/30 00:57:38;;;;;;;3.20;2.07;;;;;;;-143.84;100.00;44024.78;5031596;28;20920;-78
2021/12/30 01:00:10;;;;;;;4.37;2.50;;;;;;;-143.84;100.00;44026.69;5030950;28;20486;-78
2021/12/30 01:02:37;;;;;;;2.50;2.30;;;;;;;-143.84;100.00;44026.69;5031061;28;20489;-78
2021/12/30 01:05:05;;;;;;;2.40;2.20;;;;;;;-143.84;100.00;44030.50;5031261;28;20991;-78
2021/12/30 01:07:32;;;;;;;2.30;2.20;;;;;;;-143.84;100.00;44038.09;5013789;28;20974;-78
2021/12/30 01:10:00;;;;;;;2.50;2.40;;;;;;;-143.84;100.00;44022.88;5031286;28;20816;-77
2021/12/30 01:12:29;;;;;;;2.47;2.27;;;;;;;-143.84;100.00;44001.94;5030927;28;20832;-77
2021/12/30 01:14:56;;;;;;;2.07;1.97;;;;;;;-143.84;100.00;43988.63;5030375;28;20490;-78
2021/12/30 01:17:38;;;;;;;2.50;2.40;;;;;;;-143.84;100.00;43996.22;5030868;28;20450;-78
2021/12/30 01:20:06;;;;;;;2.87;2.60;;;;;;;-143.84;100.00;43988.63;5032411;28;20765;-78
2021/12/30 01:22:33;;;;;;;3.10;2.80;;;;;;;-143.84;100.00;44019.06;5035368;28;20477;-78
2021/12/30 01:25:02;;;;;;;2.40;2.20;;;;;;;-143.84;100.00;44003.84;5034923;28;20439;-78
2021/12/30 01:27:31;;;;;;;2.90;2.70;;;;;;;-143.84;100.00;44013.38;5034672;28;20526;-78
2021/12/30 01:30:06;;;;;;;2.50;2.37;;;;;;;-143.84;100.00;43986.72;5035056;28;20838;-78
2021/12/30 01:32:33;;;;;;;2.20;2.07;;;;;;;-143.84;100.00;43998.13;5016906;28;20489;-78
2021/12/30 01:35:03;;;;;;;2.60;2.00;;;;;;;-143.84;100.00;44011.47;5034038;28;20441;-78
2021/12/30 01:37:31;;;;;;;1.97;1.87;;;;;;;-143.84;100.00;44026.69;5034099;28;20450;-78
2021/12/30 01:39:58;;;;;;;1.97;1.87;;;;;;;-143.84;100.00;44026.69;5034058;28;20443;-78
2021/12/30 01:42:26;;;;;;;1.83;1.73;;;;;;;-143.84;100.00;44009.56;5034413;28;20435;-78
2021/12/30 01:44:54;;;;;;;2.10;2.00;;;;;;;-143.84;100.00;44022.88;5033828;28;20446;-78
2021/12/30 01:47:24;;;;;;;2.60;2.40;;;;;;;-143.84;100.00;44015.25;5034146;28;20500;-78
2021/12/30 01:49:51;;;;;;;2.20;2.10;;;;;;;-143.84;100.00;44017.16;5034076;28;21325;-78
2021/12/30 01:52:18;;;;;;;2.33;2.13;;;;;;;-143.84;100.00;44030.50;5034231;28;21319;-78
2021/12/30 01:54:45;;;;;;;1.80;1.70;;;;;;;-143.84;100.00;44020.97;5033530;28;20633;-78
2021/12/30 01:57:13;;;;;;;2.00;1.90;;;;;;;-143.84;100.00;44030.50;5033934;28;20434;-78
2021/12/30 01:59:40;;;;;;;3.53;1.70;;;;;;;-143.84;100.00;44017.16;5033804;28;20926;-78
2021/12/30 02:02:08;;;;;;;2.30;2.20;;;;;;;-143.84;100.00;44017.16;5033657;28;20477;-78
2021/12/30 02:04:36;;;;;;;2.40;2.27;;;;;;;-143.84;100.00;44011.47;5034510;28;20512;-78
2021/12/30 02:07:04;;;;;;;2.30;2.20;;;;;;;-143.84;100.00;44019.06;5033899;28;20437;-78
2021/12/30 02:09:31;;;;;;;1.90;1.80;;;;;;;-143.84;100.00;44041.91;5033633;28;20449;-78
2021/12/30 02:12:01;;;;;;;2.10;2.00;;;;;;;-143.84;100.00;44034.31;5033868;28;20954;-78
2021/12/30 02:14:35;;;;;;;1.90;1.80;;;;;;;-143.84;100.00;44057.16;5033430;28;20471;-78
2021/12/30 02:17:02;;;;;;;2.73;2.53;;;;;;;-143.84;100.00;44051.44;5033633;28;20437;-78
2021/12/30 02:19:30;;;;;;;2.63;2.43;;;;;;;-143.84;100.00;44057.16;5033283;28;20496;-78
2021/12/30 02:21:59;;;;;;;2.13;2.03;;;;;;;-143.84;100.00;44068.56;5033597;28;20466;-78
2021/12/30 02:24:27;;;;;;;1.97;1.87;;;;;;;-143.84;100.00;44053.34;5033643;28;20861;-78
2021/12/30 02:26:54;;;;;;;2.20;2.10;;;;;;;-143.84;100.00;44047.63;5033526;28;20450;-78
2021/12/30 02:29:22;;;;;;;2.50;2.40;;;;;;;-143.84;100.00;44055.25;5033395;28;20503;-78
2021/12/30 02:31:49;;;;;;;2.70;2.50;;;;;;;-143.84;100.00;44053.34;5032728;28;20501;-78
2021/12/30 02:34:16;;;;;;;2.73;2.33;;;;;;;-143.84;100.00;44062.84;5032353;28;20501;-75
2021/12/30 02:36:44;;;;;;;2.10;2.00;;;;;;;-143.84;100.00;44062.84;5031083;28;20446;-75
2021/12/30 02:39:14;;;;;;;2.00;1.90;;;;;;;-143.84;100.00;44074.28;5030397;28;20446;-75
2021/12/30 02:41:41;;;;;;;2.77;2.60;;;;;;;-143.84;100.00;44068.56;5030707;28;20524;-75
2021/12/30 02:44:10;;;;;;;2.57;2.47;;;;;;;-143.84;100.00;44057.16;5030592;28;20450;-75
2021/12/30 02:46:39;;;;;;;2.27;2.17;;;;;;;-143.84;100.00;44051.44;5030627;28;20873;-75
2021/12/30 02:49:07;;;;;;;2.50;2.30;;;;;;;-143.84;100.00;44070.47;5030452;28;20533;-75
2021/12/30 02:51:35;;;;;;;2.70;2.53;;;;;;;-143.84;100.00;44068.56;5031095;28;20465;-75
2021/12/30 02:54:03;;;;;;;2.37;2.20;;;;;;;-143.84;100.00;44064.75;5030343;28;20447;-75
2021/12/30 02:56:33;;;;;;;2.27;2.17;;;;;;;-143.84;100.00;44078.09;5030477;28;20443;-75
2021/12/30 02:59:00;;;;;;;2.57;2.37;;;;;;;-143.84;100.00;44085.69;5030436;28;20445;-75
2021/12/30 03:01:29;;;;;;;3.37;1.80;;;;;;;-143.84;100.00;44074.28;5030008;28;20474;-75
2021/12/30 03:03:57;;;;;;;3.03;2.77;;;;;;;-143.84;100.00;44083.78;5030210;28;20516;-75
2021/12/30 03:06:25;;;;;;;2.27;2.17;;;;;;;-143.84;100.00;44074.28;5029965;28;20446;-75
2021/12/30 03:08:53;;;;;;;2.70;2.50;;;;;;;-143.84;100.00;44074.28;5030748;28;20854;-75
2021/12/30 03:11:22;;;;;;;2.50;2.40;;;;;;;-143.84;100.00;44068.56;5030049;28;20522;-75
2021/12/30 03:13:53;;;;;;;2.63;2.43;;;;;;;-143.84;100.00;44070.47;5029858;28;20482;-75
2021/12/30 03:16:23;;;;;;;3.13;2.93;;;;;;;-143.84;100.00;44076.19;5030297;28;20460;-75
2021/12/30 03:18:51;;;;;;;2.50;2.40;;;;;;;-143.84;100.00;44083.78;5030066;28;20500;-75
2021/12/30 03:21:21;;;;;;;5.33;2.87;;;;;;;-143.84;100.00;44095.22;5029996;28;20879;-75
2021/12/30 03:23:49;;;;;;;2.90;2.70;;;;;;;-143.84;100.00;44091.41;5030064;28;20915;-75
2021/12/30 03:26:17;;;;;;;3.53;3.20;;;;;;;-143.84;100.00;44104.72;5029754;28;20979;-75
2021/12/30 03:28:45;;;;;;;3.13;2.93;;;;;;;-143.84;100.00;44106.63;5029667;28;20500;-75
2021/12/30 03:31:15;;;;;;;3.07;2.87;;;;;;;-143.84;100.00;44102.84;5029876;28;20441;-75
2021/12/30 03:33:43;;;;;;;3.33;3.13;;;;;;;-143.84;100.00;44112.34;5029508;28;20504;-75
2021/12/30 03:36:12;;;;;;;3.23;3.03;;;;;;;-143.84;100.00;44110.44;5029676;28;20492;-75
2021/12/30 03:38:41;;;;;;;3.07;2.83;;;;;;;-143.84;100.00;44123.78;5030085;28;20434;-75
2021/12/30 03:41:10;;;;;;;2.93;2.73;;;;;;;-143.84;100.00;44116.16;5030147;28;20478;-75
2021/12/30 03:43:37;;;;;;;3.47;3.17;;;;;;;-143.84;100.00;44125.69;5028672;28;20450;-75
2021/12/30 03:46:06;;;;;;;3.37;3.17;;;;;;;-143.84;100.00;44125.69;5029645;28;20979;-75
2021/12/30 03:48:40;;;;;;;3.40;3.10;;;;;;;-143.84;100.00;44116.16;5029316;28;20859;-75
2021/12/30 03:51:09;;;;;;;10.03;3.57;;;;;;;-143.84;100.00;44123.78;5029314;28;20465;-75
2021/12/30 03:53:39;;;;;;;3.30;3.00;;;;;;;-143.84;100.00;44118.06;5029626;28;20993;-75
2021/12/30 03:56:07;;;;;;;2.57;2.37;;;;;;;-143.84;100.00;44116.16;5029625;28;20513;-75
2021/12/30 03:58:34;;;;;;;2.93;2.73;;;;;;;-143.84;100.00;44116.16;5029471;28;20880;-75
2021/12/30 04:01:02;;;;;;;3.10;2.80;;;;;;;-143.84;100.00;44127.56;5029059;28;21069;-75
2021/12/30 04:03:29;;;;;;;3.70;2.83;;;;;;;-143.84;100.00;44127.56;5029574;28;20438;-75
2021/12/30 04:05:58;;;;;;;2.77;2.60;;;;;;;-143.84;100.00;44129.47;5029597;28;20454;-75
2021/12/30 04:08:26;;;;;;;3.10;2.90;;;;;;;-143.84;100.00;44140.91;5030176;28;20959;-75
2021/12/30 04:10:53;;;;;;;2.87;2.77;;;;;;;-143.84;100.00;44139.00;5029871;28;20496;-75
2021/12/30 04:13:20;;;;;;;3.83;2.80;;;;;;;-143.84;100.00;44148.53;5030257;28;20512;-75
2021/12/30 04:15:48;;;;;;;3.40;2.63;;;;;;;-143.84;100.00;44146.63;5029788;28;20474;-75
2021/12/30 04:18:15;;;;;;;2.77;2.57;;;;;;;-143.84;100.00;44150.41;5029586;28;21032;-75
2021/12/30 04:20:43;;;;;;;2.63;2.43;;;;;;;-143.84;100.00;44156.13;5029650;28;20450;-75
2021/12/30 04:23:11;;;;;;;2.57;2.47;;;;;;;-143.84;100.00;44158.03;5029783;28;20521;-75
2021/12/30 04:25:38;;;;;;;2.23;2.13;;;;;;;-143.84;100.00;44156.13;5029250;28;20858;-75
2021/12/30 04:28:06;;;;;;;2.47;2.33;;;;;;;-143.84;100.00;44146.63;5029059;28;20470;-75
2021/12/30 04:30:33;;;;;;;4.70;3.10;;;;;;;-143.84;100.00;44161.84;5029244;28;20509;-75
2021/12/30 04:33:01;;;;;;;3.13;2.80;;;;;;;-143.84;100.00;44184.69;5028874;28;20438;-75
2021/12/30 04:35:28;;;;;;;2.60;2.40;;;;;;;-143.84;100.00;44196.13;5028989;28;20439;-75
2021/12/30 04:37:55;;;;;;;8.03;3.07;;;;;;;-143.84;100.00;44222.75;5029168;28;20480;-75
2021/12/30 04:40:23;;;;;;;2.83;2.63;;;;;;;-143.84;100.00;44220.84;5029026;28;20460;-75
2021/12/30 04:42:51;;;;;;;5.30;3.10;;;;;;;-143.84;100.00;44218.94;5028861;28;20490;-75
2021/12/30 04:45:18;;;;;;;2.60;2.40;;;;;;;-143.84;100.00;44199.91;5029332;28;20437;-75
2021/12/30 04:47:46;;;;;;;2.10;2.00;;;;;;;-143.84;100.00;44192.31;5028962;28;20447;-75
2021/12/30 04:50:14;;;;;;;8.10;2.10;;;;;;;-143.84;100.00;44180.88;5031685;28;20468;-78
2021/12/30 04:52:42;;;;;;;2.73;2.53;;;;;;;-143.84;100.00;44169.47;5031437;28;20439;-79
2021/12/30 04:55:10;;;;;;;2.70;2.47;;;;;;;-143.84;100.00;44175.16;5032654;28;20501;-79
2021/12/30 04:57:38;;;;;;;3.40;2.73;;;;;;;-143.84;100.00;44180.88;5035300;28;20437;-78
2021/12/30 05:00:09;;;;;;;2.60;2.50;;;;;;;-143.84;100.00;44196.13;5034774;28;20438;-74
2021/12/30 05:02:55;;;;;;;2.90;2.70;;;;;;;-143.84;100.00;44215.16;5034309;28;20546;-74
2021/12/30 05:05:23;;;;;;;3.47;3.17;;;;;;;-143.84;100.00;44230.38;5034273;28;20441;-73
2021/12/30 05:07:50;;;;;;;4.73;2.87;;;;;;;-143.84;100.00;44258.94;5034077;28;20446;-73
2021/12/30 05:10:17;;;;;;;3.80;3.50;;;;;;;-143.84;100.00;44266.53;5034250;28;20442;-73
2021/12/30 05:12:46;;;;;;;3.17;2.70;;;;;;;-143.84;100.00;44283.69;5034165;28;20998;-73
2021/12/30 05:15:14;;;;;;;3.03;2.83;;;;;;;-143.84;100.00;44287.50;5033816;28;20496;-74
2021/12/30 05:17:41;;;;;;;3.90;3.50;;;;;;;-143.84;100.00;44289.41;5033745;28;20447;-73
2021/12/30 05:20:12;;;;;;;7.27;4.87;;;;;;;-143.84;100.00;44304.63;5033996;28;20470;-73
2021/12/30 05:22:40;;;;;;;11.77;5.23;;;;;;;-143.84;100.00;44354.13;5033861;28;20812;-73
2021/12/30 05:25:08;;;;;;;4.83;4.33;;;;;;;-143.84;100.00;44390.28;5034065;28;20439;-73
2021/12/30 05:27:35;;;;;;;8.47;5.33;;;;;;;-143.84;100.00;44411.22;5034555;28;20430;-73
2021/12/30 05:30:05;;;;;;;4.47;4.10;;;;;;;-143.84;100.00;44424.56;5033552;28;20438;-74
2021/12/30 05:32:32;;;;;;;4.43;4.10;;;;;;;-143.84;100.00;44420.75;5033824;28;20438;-73
2021/12/30 05:34:59;;;;;;;5.50;4.27;;;;;;;-143.84;100.00;44422.66;5034093;28;20439;-73
2021/12/30 05:37:27;;;;;;;12.33;5.50;;;;;;;-143.84;100.00;44430.28;5033865;28;21005;-73
2021/12/30 05:39:54;;;;;;;8.60;5.23;;;;;;;-143.84;100.00;44428.38;5033511;28;20956;-74
2021/12/30 05:42:22;;;;;;;6.53;5.93;;;;;;;-143.84;100.00;44447.41;5033533;28;20470;-73
2021/12/30 05:44:50;;;;;;;6.20;5.57;;;;;;;-143.84;100.00;44456.94;5033297;28;20449;-73
2021/12/30 05:47:20;;;;;;;8.13;5.73;;;;;;;-143.84;100.00;44455.03;5033976;28;20510;-73
2021/12/30 05:49:47;;;;;;;10.43;6.13;;;;;;;-143.84;100.00;44458.81;5025596;28;20446;-74
2021/12/30 05:52:15;;;;;;;7.00;6.07;;;;;;;-143.84;100.00;44458.81;5033553;28;20567;-73
2021/12/30 05:54:43;;;;;;;9.40;6.93;;;;;;;-143.84;100.00;44462.63;5033259;28;20446;-74
2021/12/30 05:57:11;;;;;;;12.73;7.20;;;;;;;-143.84;100.00;44466.44;5033763;28;20480;-73
2021/12/30 05:59:38;;;;;;;8.93;6.23;;;;;;;-143.84;100.00;44464.53;5032852;28;20450;-73
2021/12/30 06:02:05;;;;;;;14.93;6.60;;;;;;;-143.84;100.00;44460.72;5033079;28;20486;-73
2021/12/30 06:04:34;;;;;;;9.50;6.73;;;;;;;-143.84;100.00;44456.94;5033440;28;20439;-73
2021/12/30 06:07:01;;;;;;;10.30;6.60;;;;;;;-143.84;100.00;44462.63;5032282;28;20513;-73
2021/12/30 06:09:29;;;;;;;9.13;7.43;;;;;;;-143.84;100.00;44460.72;5033390;28;20442;-74
2021/12/30 06:11:56;;;;;;;7.70;6.30;;;;;;;-143.84;100.00;44458.81;5032659;28;20438;-73
2021/12/30 06:14:23;;;;;;;7.90;5.97;;;;;;;-143.84;100.00;44445.50;5032828;28;20486;-73
2021/12/30 06:16:50;;;;;;;9.70;7.53;;;;;;;-143.84;100.00;44415.03;5033238;28;20490;-73
2021/12/30 06:19:18;;;;;;;6.60;5.57;;;;;;;-143.84;100.00;44367.44;5033523;28;20439;-73
2021/12/30 06:21:46;;;;;;;6.67;5.97;;;;;;;-143.84;100.00;44287.50;5033226;28;20543;-73
2021/12/30 06:24:13;;;;;;;5.50;4.97;;;;;;;-143.84;100.00;44211.34;5032959;28;20505;-73
2021/12/30 06:26:42;;;;;;;4.90;4.50;;;;;;;-143.84;100.00;44142.81;5033230;28;21222;-73
2021/12/30 06:29:09;;;;;;;5.47;4.13;;;;;;;-143.84;100.00;44116.16;5032764;28;20496;-73
2021/12/30 06:31:40;;;;;;;9.87;5.03;;;;;;;-143.84;100.00;44097.13;5032724;28;20477;-73
2021/12/30 06:34:07;;;;;;;8.03;5.80;;;;;;;-143.84;100.00;44123.78;5033174;28;20455;-73
2021/12/30 06:36:35;;;;;;;9.40;5.47;;;;;;;-143.84;100.00;44146.63;5032868;28;20439;-74
2021/12/30 06:39:05;;;;;;;10.43;6.70;;;;;;;-143.84;100.00;44158.03;5032835;28;20461;-74
2021/12/30 06:41:32;;;;;;;7.97;7.10;;;;;;;-143.84;100.00;44188.50;5032589;28;20525;-74
2021/12/30 06:44:00;;;;;;;13.80;6.90;;;;;;;-143.84;100.00;44217.06;5032743;28;20435;-74
2021/12/30 06:46:27;;;;;;;6.07;5.53;;;;;;;-143.84;100.00;44205.63;5032333;28;20435;-74
2021/12/30 06:48:54;;;;;;;5.80;5.33;;;;;;;-143.84;100.00;44173.25;5032732;28;20780;-74
2021/12/30 06:51:24;;;;;;;10.70;5.33;;;;;;;-143.84;100.00;44144.72;5032803;28;20442;-74
2021/12/30 06:53:54;;;;;;;7.33;5.77;;;;;;;-143.84;100.00;44131.38;5032511;28;20518;-73
2021/12/30 06:56:24;;;;;;;5.93;5.50;;;;;;;-143.84;100.00;44112.34;5032612;28;20423;-73
2021/12/30 06:58:51;;;;;;;6.63;5.30;;;;;;;-143.84;100.00;44099.03;5032656;28;20696;-74
2021/12/30 07:01:18;;;;;;;6.27;4.93;;;;;;;-143.84;100.00;44102.84;5032350;28;20865;-74
2021/12/30 07:03:45;;;;;;;4.07;3.67;;;;;;;-143.84;100.00;44093.31;5032078;28;20486;-74
2021/12/30 07:06:13;;;;;;;5.60;4.27;;;;;;;-143.84;100.00;44106.63;5031874;28;20446;-74
2021/12/30 07:08:40;;;;;;;5.43;4.93;;;;;;;-143.84;100.00;44142.81;5032203;28;20505;-75
2021/12/30 07:11:07;;;;;;;4.93;4.43;;;;;;;-143.84;100.00;44148.53;5032091;28;20457;-73
2021/12/30 07:13:36;;;;;;;6.10;5.30;;;;;;;-143.84;100.00;44163.75;5031723;28;20457;-74
2021/12/30 07:16:04;;;;;;;5.47;4.90;;;;;;;-143.84;100.00;44165.66;5032239;28;20454;-74
2021/12/30 07:18:31;;;;;;;14.17;6.60;;;;;;;-143.84;100.00;44205.63;5031418;28;20442;-74
2021/12/30 07:20:58;;;;;;;10.13;6.50;;;;;;;-143.84;100.00;44253.22;5029873;28;20450;-75
2021/12/30 07:23:25;;;;;;;12.03;8.27;;;;;;;-143.84;100.00;44314.13;5029862;28;20478;-74
2021/12/30 07:25:53;;;;;;;11.50;7.13;;;;;;;-143.84;100.00;44363.63;5030735;28;20585;-74
2021/12/30 07:28:20;;;;;;;7.43;6.67;;;;;;;-143.84;100.00;44396.00;5032353;28;20535;-73
2021/12/30 07:30:49;;;;;;;15.60;7.73;;;;;;;-143.84;100.00;44407.44;5032381;28;20435;-74
2021/12/30 07:33:16;;;;;;;10.90;6.70;;;;;;;-143.84;100.00;44413.13;5031921;28;20858;-74
2021/12/30 07:35:44;;;;;;;8.10;7.30;;;;;;;-143.84;100.00;44420.75;5031720;28;20446;-74
2021/12/30 07:38:11;;;;;;;8.53;6.60;;;;;;;-143.84;100.00;44418.84;5031856;28;20450;-73
2021/12/30 07:40:38;;;;;;;6.53;5.93;;;;;;;-143.84;100.00;44415.03;5031696;28;20443;-74
2021/12/30 07:43:05;;;;;;;5.17;4.67;;;;;;;-143.84;100.00;44380.78;5031794;28;20486;-74
2021/12/30 07:45:33;;;;;;;6.00;4.23;;;;;;;-143.84;100.00;44308.44;5031940;28;20793;-73
2021/12/30 07:48:02;;;;;;;12.43;3.60;;;;;;;-143.84;100.00;44251.31;5031663;28;20978;-74
2021/12/30 07:50:29;;;;;;;4.37;4.00;;;;;;;-143.84;100.00;44192.31;5031465;28;20442;-74
2021/12/30 07:52:56;;;;;;;4.47;4.17;;;;;;;-143.84;100.00;44156.13;5029911;28;20454;-75
2021/12/30 07:55:23;;;;;;;5.13;4.63;;;;;;;-143.84;100.00;44135.19;5029148;28;20453;-75
2021/12/30 07:57:51;;;;;;;10.90;4.70;;;;;;;-143.84;100.00;44118.06;5029180;28;20937;-75
2021/12/30 08:00:19;;;;;;;12.60;6.30;;;;;;;-143.84;100.00;44121.88;5029179;28;20978;-75
2021/12/30 08:02:46;;;;;;;13.33;6.80;;;;;;;-143.84;100.00;44135.19;5028825;28;20483;-75
2021/12/30 08:05:18;;;;;;;23.03;10.90;;;;;;;-143.84;100.00;44169.47;5029482;28;20435;-75
2021/12/30 08:07:47;;;;;;;15.80;7.80;;;;;;;-143.84;100.00;44198.00;5029591;28;20781;-75
2021/12/30 08:10:15;;;;;;;20.27;10.70;;;;;;;-143.84;100.00;44249.41;5029869;28;20453;-75
2021/12/30 08:12:44;;;;;;;14.20;8.50;;;;;;;-143.84;100.00;44310.34;5029136;28;20504;-75
2021/12/30 08:15:13;;;;;;;14.53;6.30;;;;;;;-143.84;100.00;44340.78;5029052;28;20476;-75
2021/12/30 08:17:41;;;;;;;17.83;9.20;;;;;;;-143.84;100.00;44361.72;5029490;28;20451;-75
2021/12/30 08:20:11;;;;;;;14.00;8.07;;;;;;;-143.84;100.00;44369.34;5029396;28;21106;-75
2021/12/30 08:22:40;;;;;;;14.70;8.67;;;;;;;-143.84;100.00;44369.34;5011497;28;20479;-75
2021/12/30 08:25:09;;;;;;;7.10;6.40;;;;;;;-143.84;100.00;44342.69;5029126;28;20462;-75
2021/12/30 08:27:36;;;;;;;4.33;4.03;;;;;;;-143.84;100.00;44236.09;5029152;28;20871;-75
2021/12/30 08:30:05;;;;;;;3.80;3.50;;;;;;;-143.84;100.00;44140.91;5028250;28;20823;-75
2021/12/30 08:32:32;;;;;;;5.67;4.07;;;;;;;-143.84;100.00;44100.94;5029128;28;20439;-75
2021/12/30 08:35:00;;;;;;;3.90;3.60;;;;;;;-143.84;100.00;44106.63;5028983;28;20574;-75
2021/12/30 08:37:27;;;;;;;4.77;4.10;;;;;;;-143.84;100.00;44116.16;5028975;28;20519;-75
2021/12/30 08:39:56;;;;;;;3.70;3.50;;;;;;;-143.84;100.00;44112.34;5028658;28;20501;-75
2021/12/30 08:42:26;;;;;;;2.67;2.57;;;;;;;-143.84;100.00;44110.44;5028866;28;21098;-75
2021/12/30 08:44:55;;;;;;;2.30;2.13;;;;;;;-143.84;100.00;44089.50;5028795;28;20516;-75
2021/12/30 08:47:22;;;;;;;1.90;1.80;;;;;;;-143.84;100.00;44085.69;5028723;28;20928;-75
2021/12/30 08:49:50;;;;;;;2.20;2.00;;;;;;;-143.84;100.00;44070.47;5028721;28;21026;-75
2021/12/30 08:52:19;;;;;;;1.93;1.80;;;;;;;-143.84;100.00;44078.09;5028771;28;20798;-75
2021/12/30 08:54:49;;;;;;;2.27;1.80;;;;;;;-143.84;100.00;44085.69;5028396;28;20500;-75
2021/12/30 08:57:18;;;;;;;1.57;1.47;;;;;;;-143.84;100.00;44116.16;5028664;28;20477;-75
2021/12/30 08:59:46;;;;;;;3.23;1.53;;;;;;;-143.84;100.00;44123.78;5028693;28;20447;-75
2021/12/30 09:02:13;;;;;;;1.70;1.60;;;;;;;-143.84;100.00;44156.13;5028683;28;20445;-75
2021/12/30 09:04:42;;;;;;;2.33;2.07;;;;;;;-143.84;100.00;44175.16;5027988;28;20462;-75
2021/12/30 09:07:10;;;;;;;2.30;2.00;;;;;;;-143.84;100.00;44218.94;5028341;28;20447;-75
2021/12/30 09:09:37;;;;;;;2.73;2.47;;;;;;;-143.84;100.00;44251.31;5028237;28;20983;-75
2021/12/30 09:12:06;;;;;;;8.30;4.30;;;;;;;-143.84;100.00;44293.19;5028369;28;20442;-75
2021/12/30 09:14:35;;;;;;;2.80;2.60;;;;;;;-143.84;100.00;44329.38;5010987;28;20544;-75
2021/12/30 09:17:03;;;;;;;2.13;1.73;;;;;;;-143.84;100.00;44346.50;5028685;28;20443;-75
2021/12/30 09:19:30;;;;;;;2.10;1.90;;;;;;;-143.84;100.00;44336.97;5028388;28;20443;-75
2021/12/30 09:21:58;;;;;;;2.30;2.10;;;;;;;-143.84;100.00;44336.97;5028188;28;20453;-75
2021/12/30 09:24:25;;;;;;;3.23;1.73;;;;;;;-143.84;100.00;44342.69;5028461;28;20555;-75
2021/12/30 09:26:52;;;;;;;2.13;2.00;;;;;;;-143.84;100.00;44354.13;5028646;28;20462;-75
2021/12/30 09:29:19;;;;;;;1.57;1.47;;;;;;;-143.84;100.00;44384.59;5028718;28;20509;-75
2021/12/30 09:31:50;;;;;;;2.13;2.03;;;;;;;-143.84;100.00;44403.63;5028969;28;20434;-75
2021/12/30 09:34:18;;;;;;;2.10;2.00;;;;;;;-143.84;100.00;44415.03;5028658;28;20434;-75
2021/12/30 09:36:46;;;;;;;2.60;2.40;;;;;;;-143.84;100.00;44428.38;5028572;28;21401;-75
2021/12/30 09:39:14;;;;;;;4.60;3.07;;;;;;;-143.84;100.00;44447.41;5028330;28;21313;-75
2021/12/30 09:41:44;;;;;;;4.43;3.20;;;;;;;-143.84;100.00;44451.22;5030080;28;20461;-78
2021/12/30 09:44:14;;;;;;;3.13;2.93;;;;;;;-143.84;100.00;44460.72;5032086;28;20581;-73
2021/12/30 09:46:42;;;;;;;4.63;4.23;;;;;;;-143.84;100.00;44460.72;5033830;28;20512;-78
2021/12/30 09:49:13;;;;;;;10.90;5.13;;;;;;;-143.84;100.00;44470.25;5033904;28;20443;-78
2021/12/30 09:51:42;;;;;;;5.93;5.30;;;;;;;-143.84;100.00;44472.16;5031606;28;20886;-75
2021/12/30 09:54:10;;;;;;;7.10;5.20;;;;;;;-143.84;100.00;44470.25;5031586;28;20531;-75
2021/12/30 09:56:38;;;;;;;8.53;6.70;;;;;;;-143.84;100.00;44470.25;5031695;28;20443;-75
2021/12/30 09:59:08;;;;;;;10.90;7.37;;;;;;;-143.84;100.00;44481.69;5031499;28;20438;-75
2021/12/30 10:01:37;;;;;;;13.47;7.73;;;;;;;-143.84;100.00;44472.16;5033656;28;20443;-73
2021/12/30 10:04:05;;;;;;;10.57;7.30;;;;;;;-143.84;100.00;44477.88;5033449;28;20490;-73
2021/12/30 10:06:35;;;;;;;15.37;7.50;;;;;;;-143.84;100.00;44479.78;5033156;28;20506;-74
2021/12/30 10:09:11;;;;;;;11.60;9.37;;;;;;;-143.84;100.00;44477.88;5033347;28;20537;-73
2021/12/30 10:11:48;;;;;;;13.73;8.30;;;;;;;-143.84;100.00;44477.88;5033648;28;20454;-74
2021/12/30 10:14:28;;;;;;;11.30;8.37;;;;;;;-143.84;100.00;44475.97;5033252;28;20470;-74
2021/12/30 10:17:14;;;;;;;12.43;8.33;;;;;;;-143.84;100.00;44475.97;5033557;28;20432;-74
2021/12/30 10:19:42;;;;;;;12.93;8.93;;;;;;;-143.84;100.00;44474.06;5033319;28;20458;-74
2021/12/30 10:22:12;;;;;;;13.97;9.10;;;;;;;-143.84;100.00;44468.34;5033079;28;20426;-74
2021/12/30 10:24:40;;;;;;;10.70;8.00;;;;;;;-143.84;100.00;44464.53;5033342;28;21074;-74
2021/12/30 10:27:08;;;;;;;10.70;8.13;;;;;;;-143.84;100.00;44466.44;5032905;28;21075;-74
2021/12/30 10:29:42;;;;;;;11.30;8.60;;;;;;;-143.84;100.00;44462.63;5033558;28;20423;-74
2021/12/30 10:32:18;;;;;;;12.30;8.00;;;;;;;-143.84;100.00;44462.63;5033075;28;20963;-74
2021/12/30 10:35:10;;;;;;;10.93;8.93;;;;;;;-143.84;100.00;44458.81;5032818;28;20508;-74
2021/12/30 10:37:43;;;;;;;11.87;8.23;;;;;;;-143.84;100.00;44458.81;5030794;28;20449;-75
2021/12/30 10:40:28;;;;;;;10.50;7.87;;;;;;;-143.84;100.00;44447.41;5030998;28;20866;-75
2021/12/30 10:43:17;;;;;;;10.20;7.63;;;;;;;-143.84;100.00;44445.50;5030712;28;21252;-75
2021/12/30 10:45:44;;;;;;;9.67;7.73;;;;;;;-143.84;100.00;44430.28;5031245;28;20446;-76
2021/12/30 10:48:11;;;;;;;9.93;6.70;;;;;;;-143.84;100.00;44415.03;5030704;28;20440;-75
2021/12/30 10:50:38;;;;;;;8.97;6.63;;;;;;;-143.84;100.00;44392.19;5030861;28;20469;-75
2021/12/30 10:53:07;;;;;;;8.87;7.00;;;;;;;-143.84;100.00;44396.00;5030429;28;20450;-75
2021/12/30 10:55:34;;;;;;;7.60;6.80;;;;;;;-143.84;100.00;44386.47;5030826;28;20456;-76
2021/12/30 10:58:25;;;;;;;11.63;6.80;;;;;;;-143.84;100.00;44394.09;5030398;28;20443;-76
2021/12/30 11:00:52;;;;;;;9.37;7.23;;;;;;;-143.84;100.00;44403.63;5030684;28;20435;-74
2021/12/30 11:03:20;;;;;;;7.53;6.33;;;;;;;-143.84;100.00;44382.69;5032968;28;20541;-74
2021/12/30 11:06:20;;;;;;;10.10;6.97;;;;;;;-143.84;100.00;44357.94;5032297;28;20442;-74
2021/12/30 11:08:50;;;;;;;8.13;7.30;;;;;;;-143.84;100.00;44317.94;5032363;28;20435;-74
2021/12/30 11:11:24;;;;;;;9.53;7.40;;;;;;;-143.84;100.00;44268.44;5032403;28;20508;-73
2021/12/30 11:13:59;;;;;;;7.53;6.50;;;;;;;-143.84;100.00;44258.94;5031980;28;20544;-74